sensor_id;sensor_type;location;lat;lon;timestamp;temperature;humidity
11246;DHT22;59870;50.106;8.580;2023-09-18T00:00:53;25.70;90.20
11246;DHT22;59870;50.106;8.580;2023-09-18T00:03:21;25.60;90.10
11246;DHT22;59870;50.106;8.580;2023-09-18T00:05:52;25.40;90.10
11246;DHT22;59870;50.106;8.580;2023-09-18T00:08:20;25.60;90.20
11246;DHT22;59870;50.106;8.580;2023-09-18T00:10:50;25.70;90.10
11246;DHT22;59870;50.106;8.580;2023-09-18T00:13:18;25.40;90.20
11246;DHT22;59870;50.106;8.580;2023-09-18T00:15:45;25.40;90.10
11246;DHT22;59870;50.106;8.580;2023-09-18T00:18:16;25.30;90.20
11246;DHT22;59870;50.106;8.580;2023-09-18T00:20:44;25.30;90.10
11246;DHT22;59870;50.106;8.580;2023-09-18T00:23:16;25.30;90.20
11246;DHT22;59870;50.106;8.580;2023-09-18T00:25:43;25.30;90.20
11246;DHT22;59870;50.106;8.580;2023-09-18T00:28:11;25.30;90.20
11246;DHT22;59870;50.106;8.580;2023-09-18T00:30:46;25.60;90.40
11246;DHT22;59870;50.106;8.580;2023-09-18T00:33:16;25.50;90.30
11246;DHT22;59870;50.106;8.580;2023-09-18T00:35:50;25.30;90.20
11246;DHT22;59870;50.106;8.580;2023-09-18T00:38:18;25.20;90.20
11246;DHT22;59870;50.106;8.580;2023-09-18T00:40:46;25.20;90.20
11246;DHT22;59870;50.106;8.580;2023-09-18T00:43:14;25.20;90.20
11246;DHT22;59870;50.106;8.580;2023-09-18T00:45:45;25.40;90.20
11246;DHT22;59870;50.106;8.580;2023-09-18T00:48:15;25.20;90.20
11246;DHT22;59870;50.106;8.580;2023-09-18T00:50:46;25.10;90.10
11246;DHT22;59870;50.106;8.580;2023-09-18T00:53:19;25.10;90.20
11246;DHT22;59870;50.106;8.580;2023-09-18T00:55:47;25.40;90.40
11246;DHT22;59870;50.106;8.580;2023-09-18T00:58:16;25.10;90.40
11246;DHT22;59870;50.106;8.580;2023-09-18T01:00:44;25.10;90.40
11246;DHT22;59870;50.106;8.580;2023-09-18T01:03:12;25.10;90.40
11246;DHT22;59870;50.106;8.580;2023-09-18T01:05:39;25.20;90.50
11246;DHT22;59870;50.106;8.580;2023-09-18T01:08:06;25.30;90.60
11246;DHT22;59870;50.106;8.580;2023-09-18T01:11:26;25.00;90.60
11246;DHT22;59870;50.106;8.580;2023-09-18T01:16:32;25.00;90.70
11246;DHT22;59870;50.106;8.580;2023-09-18T01:19:02;25.20;90.80
11246;DHT22;59870;50.106;8.580;2023-09-18T01:21:30;25.20;90.90
11246;DHT22;59870;50.106;8.580;2023-09-18T01:23:58;24.90;90.80
11246;DHT22;59870;50.106;8.580;2023-09-18T01:26:26;25.20;91.00
11246;DHT22;59870;50.106;8.580;2023-09-18T01:28:54;24.90;90.80
11246;DHT22;59870;50.106;8.580;2023-09-18T01:31:21;24.90;90.70
11246;DHT22;59870;50.106;8.580;2023-09-18T01:33:50;24.90;90.80
11246;DHT22;59870;50.106;8.580;2023-09-18T01:36:18;24.90;90.70
11246;DHT22;59870;50.106;8.580;2023-09-18T01:38:46;24.90;90.90
11246;DHT22;59870;50.106;8.580;2023-09-18T01:41:14;25.20;91.10
11246;DHT22;59870;50.106;8.580;2023-09-18T01:43:41;24.90;90.90
11246;DHT22;59870;50.106;8.580;2023-09-18T01:46:09;25.10;91.00
11246;DHT22;59870;50.106;8.580;2023-09-18T01:48:36;24.80;90.80
11246;DHT22;59870;50.106;8.580;2023-09-18T01:51:05;24.80;90.90
11246;DHT22;59870;50.106;8.580;2023-09-18T01:53:32;24.80;91.00
11246;DHT22;59870;50.106;8.580;2023-09-18T01:55:59;25.10;91.00
11246;DHT22;59870;50.106;8.580;2023-09-18T01:58:28;24.80;90.90
11246;DHT22;59870;50.106;8.580;2023-09-18T02:00:56;24.80;90.80
11246;DHT22;59870;50.106;8.580;2023-09-18T02:03:28;24.80;90.90
11246;DHT22;59870;50.106;8.580;2023-09-18T02:06:15;24.80;90.80
11246;DHT22;59870;50.106;8.580;2023-09-18T02:08:43;24.80;91.10
11246;DHT22;59870;50.106;8.580;2023-09-18T02:11:10;24.80;91.10
11246;DHT22;59870;50.106;8.580;2023-09-18T02:13:38;25.10;91.30
11246;DHT22;59870;50.106;8.580;2023-09-18T02:16:05;24.80;91.40
11246;DHT22;59870;50.106;8.580;2023-09-18T02:18:33;25.10;91.70
11246;DHT22;59870;50.106;8.580;2023-09-18T02:21:01;25.20;91.70
11246;DHT22;59870;50.106;8.580;2023-09-18T02:23:28;24.80;92.30
11246;DHT22;59870;50.106;8.580;2023-09-18T02:25:57;25.10;92.40
11246;DHT22;59870;50.106;8.580;2023-09-18T02:28:24;25.00;92.50
11246;DHT22;59870;50.106;8.580;2023-09-18T02:30:52;24.80;93.30
11246;DHT22;59870;50.106;8.580;2023-09-18T02:33:20;24.80;93.10
11246;DHT22;59870;50.106;8.580;2023-09-18T02:35:47;24.90;93.30
11246;DHT22;59870;50.106;8.580;2023-09-18T02:38:15;24.80;93.30
11246;DHT22;59870;50.106;8.580;2023-09-18T02:40:42;25.10;93.80
11246;DHT22;59870;50.106;8.580;2023-09-18T02:43:10;24.80;93.60
11246;DHT22;59870;50.106;8.580;2023-09-18T02:45:37;24.80;93.60
11246;DHT22;59870;50.106;8.580;2023-09-18T02:48:05;24.80;93.80
11246;DHT22;59870;50.106;8.580;2023-09-18T02:50:32;24.80;94.20
11246;DHT22;59870;50.106;8.580;2023-09-18T02:53:00;25.10;94.40
11246;DHT22;59870;50.106;8.580;2023-09-18T02:55:28;25.00;94.20
11246;DHT22;59870;50.106;8.580;2023-09-18T02:57:57;24.70;94.10
11246;DHT22;59870;50.106;8.580;2023-09-18T03:00:24;24.70;94.10
11246;DHT22;59870;50.106;8.580;2023-09-18T03:03:10;25.00;94.40
11246;DHT22;59870;50.106;8.580;2023-09-18T03:05:38;24.70;94.20
11246;DHT22;59870;50.106;8.580;2023-09-18T03:08:08;24.60;94.30
11246;DHT22;59870;50.106;8.580;2023-09-18T03:10:38;24.80;94.40
11246;DHT22;59870;50.106;8.580;2023-09-18T03:13:10;24.80;94.70
11246;DHT22;59870;50.106;8.580;2023-09-18T03:15:38;24.60;94.70
11246;DHT22;59870;50.106;8.580;2023-09-18T03:18:06;24.90;94.80
11246;DHT22;59870;50.106;8.580;2023-09-18T03:20:38;24.60;94.80
11246;DHT22;59870;50.106;8.580;2023-09-18T03:23:06;24.80;94.80
11246;DHT22;59870;50.106;8.580;2023-09-18T03:25:35;24.80;94.80
11246;DHT22;59870;50.106;8.580;2023-09-18T03:28:16;24.50;95.00
11246;DHT22;59870;50.106;8.580;2023-09-18T03:30:44;24.50;94.90
11246;DHT22;59870;50.106;8.580;2023-09-18T03:33:12;24.70;95.00
11246;DHT22;59870;50.106;8.580;2023-09-18T03:35:51;24.40;95.00
11246;DHT22;59870;50.106;8.580;2023-09-18T03:38:23;24.40;95.10
11246;DHT22;59870;50.106;8.580;2023-09-18T03:40:52;24.40;95.30
11246;DHT22;59870;50.106;8.580;2023-09-18T03:43:20;24.40;95.40
11246;DHT22;59870;50.106;8.580;2023-09-18T03:45:49;24.70;95.40
11246;DHT22;59870;50.106;8.580;2023-09-18T03:48:17;24.30;95.40
11246;DHT22;59870;50.106;8.580;2023-09-18T03:50:45;24.50;95.40
11246;DHT22;59870;50.106;8.580;2023-09-18T03:53:15;24.30;95.40
11246;DHT22;59870;50.106;8.580;2023-09-18T03:55:42;24.30;95.40
11246;DHT22;59870;50.106;8.580;2023-09-18T03:58:10;24.30;95.30
11246;DHT22;59870;50.106;8.580;2023-09-18T04:00:38;24.20;95.70
11246;DHT22;59870;50.106;8.580;2023-09-18T04:03:05;24.20;95.50
11246;DHT22;59870;50.106;8.580;2023-09-18T04:05:33;24.10;95.70
11246;DHT22;59870;50.106;8.580;2023-09-18T04:08:00;24.20;95.70
11246;DHT22;59870;50.106;8.580;2023-09-18T04:10:29;24.20;95.80
11246;DHT22;59870;50.106;8.580;2023-09-18T04:12:56;24.10;95.70
11246;DHT22;59870;50.106;8.580;2023-09-18T04:15:24;24.10;95.70
11246;DHT22;59870;50.106;8.580;2023-09-18T04:17:53;24.10;96.00
11246;DHT22;59870;50.106;8.580;2023-09-18T04:20:20;24.30;96.10
11246;DHT22;59870;50.106;8.580;2023-09-18T04:22:48;24.00;96.00
11246;DHT22;59870;50.106;8.580;2023-09-18T04:25:35;24.00;96.00
11246;DHT22;59870;50.106;8.580;2023-09-18T04:28:03;24.30;96.20
11246;DHT22;59870;50.106;8.580;2023-09-18T04:30:30;24.00;96.20
11246;DHT22;59870;50.106;8.580;2023-09-18T04:32:58;24.00;95.60
11246;DHT22;59870;50.106;8.580;2023-09-18T04:35:25;23.90;95.90
11246;DHT22;59870;50.106;8.580;2023-09-18T04:37:55;23.90;96.20
11246;DHT22;59870;50.106;8.580;2023-09-18T04:40:24;23.90;96.30
11246;DHT22;59870;50.106;8.580;2023-09-18T04:42:52;23.90;96.30
11246;DHT22;59870;50.106;8.580;2023-09-18T04:45:19;24.10;96.50
11246;DHT22;59870;50.106;8.580;2023-09-18T04:47:47;23.80;96.50
11246;DHT22;59870;50.106;8.580;2023-09-18T04:50:15;23.80;96.60
11246;DHT22;59870;50.106;8.580;2023-09-18T04:52:45;23.80;96.70
11246;DHT22;59870;50.106;8.580;2023-09-18T04:55:15;23.80;96.70
11246;DHT22;59870;50.106;8.580;2023-09-18T04:57:42;23.80;96.70
11246;DHT22;59870;50.106;8.580;2023-09-18T05:00:10;23.80;96.80
11246;DHT22;59870;50.106;8.580;2023-09-18T05:02:44;23.80;96.90
11246;DHT22;59870;50.106;8.580;2023-09-18T05:05:13;23.80;96.90
11246;DHT22;59870;50.106;8.580;2023-09-18T05:07:42;23.80;96.90
11246;DHT22;59870;50.106;8.580;2023-09-18T05:10:10;23.80;97.00
11246;DHT22;59870;50.106;8.580;2023-09-18T05:12:39;23.80;97.00
11246;DHT22;59870;50.106;8.580;2023-09-18T05:15:08;24.00;97.10
11246;DHT22;59870;50.106;8.580;2023-09-18T05:17:42;23.80;97.10
11246;DHT22;59870;50.106;8.580;2023-09-18T05:20:11;23.70;97.10
11246;DHT22;59870;50.106;8.580;2023-09-18T05:22:40;23.80;97.20
11246;DHT22;59870;50.106;8.580;2023-09-18T05:25:09;24.00;97.30
11246;DHT22;59870;50.106;8.580;2023-09-18T05:27:38;23.80;97.20
11246;DHT22;59870;50.106;8.580;2023-09-18T05:30:12;23.70;97.20
11246;DHT22;59870;50.106;8.580;2023-09-18T05:32:42;23.80;97.30
11246;DHT22;59870;50.106;8.580;2023-09-18T05:35:10;23.90;97.30
11246;DHT22;59870;50.106;8.580;2023-09-18T05:37:40;23.80;97.30
11246;DHT22;59870;50.106;8.580;2023-09-18T05:40:09;23.80;97.20
11246;DHT22;59870;50.106;8.580;2023-09-18T05:42:38;23.70;97.20
11246;DHT22;59870;50.106;8.580;2023-09-18T05:45:06;23.80;97.20
11246;DHT22;59870;50.106;8.580;2023-09-18T05:47:34;23.80;97.10
11246;DHT22;59870;50.106;8.580;2023-09-18T05:50:07;23.90;97.30
11246;DHT22;59870;50.106;8.580;2023-09-18T05:52:35;23.80;97.30
11246;DHT22;59870;50.106;8.580;2023-09-18T05:55:02;23.80;97.30
11246;DHT22;59870;50.106;8.580;2023-09-18T05:57:32;23.80;97.30
11246;DHT22;59870;50.106;8.580;2023-09-18T05:59:59;23.80;97.40
11246;DHT22;59870;50.106;8.580;2023-09-18T06:02:28;23.80;97.30
11246;DHT22;59870;50.106;8.580;2023-09-18T06:04:57;23.90;97.70
11246;DHT22;59870;50.106;8.580;2023-09-18T06:07:26;23.80;97.70
11246;DHT22;59870;50.106;8.580;2023-09-18T06:09:53;23.90;97.70
11246;DHT22;59870;50.106;8.580;2023-09-18T06:12:20;23.80;97.80
11246;DHT22;59870;50.106;8.580;2023-09-18T06:14:49;23.80;97.70
11246;DHT22;59870;50.106;8.580;2023-09-18T06:17:17;23.80;97.50
11246;DHT22;59870;50.106;8.580;2023-09-18T06:19:45;23.80;97.50
11246;DHT22;59870;50.106;8.580;2023-09-18T06:22:13;23.90;97.70
11246;DHT22;59870;50.106;8.580;2023-09-18T06:24:41;24.10;97.70
11246;DHT22;59870;50.106;8.580;2023-09-18T06:27:09;24.20;97.80
11246;DHT22;59870;50.106;8.580;2023-09-18T06:29:38;23.90;97.50
11246;DHT22;59870;50.106;8.580;2023-09-18T06:32:06;23.90;97.50
11246;DHT22;59870;50.106;8.580;2023-09-18T06:34:34;23.90;97.50
11246;DHT22;59870;50.106;8.580;2023-09-18T06:37:01;23.90;97.70
11246;DHT22;59870;50.106;8.580;2023-09-18T06:39:32;23.90;97.60
11246;DHT22;59870;50.106;8.580;2023-09-18T06:42:00;24.20;97.80
11246;DHT22;59870;50.106;8.580;2023-09-18T06:44:27;23.90;97.60
11246;DHT22;59870;50.106;8.580;2023-09-18T06:46:55;24.00;97.60
11246;DHT22;59870;50.106;8.580;2023-09-18T06:49:22;23.90;97.70
11246;DHT22;59870;50.106;8.580;2023-09-18T06:51:50;24.00;97.60
11246;DHT22;59870;50.106;8.580;2023-09-18T06:54:17;24.00;97.60
11246;DHT22;59870;50.106;8.580;2023-09-18T06:56:44;24.30;97.70
11246;DHT22;59870;50.106;8.580;2023-09-18T06:59:12;24.00;97.90
11246;DHT22;59870;50.106;8.580;2023-09-18T07:01:40;24.00;97.50
11246;DHT22;59870;50.106;8.580;2023-09-18T07:04:09;24.00;97.30
11246;DHT22;59870;50.106;8.580;2023-09-18T07:06:37;24.00;97.50
11246;DHT22;59870;50.106;8.580;2023-09-18T07:09:05;24.10;97.40
11246;DHT22;59870;50.106;8.580;2023-09-18T07:11:34;24.10;97.50
11246;DHT22;59870;50.106;8.580;2023-09-18T07:14:02;24.40;97.50
11246;DHT22;59870;50.106;8.580;2023-09-18T07:16:33;24.40;97.40
11246;DHT22;59870;50.106;8.580;2023-09-18T07:19:01;24.10;97.20
11246;DHT22;59870;50.106;8.580;2023-09-18T07:21:32;24.10;97.40
11246;DHT22;59870;50.106;8.580;2023-09-18T07:24:00;24.40;97.50
11246;DHT22;59870;50.106;8.580;2023-09-18T07:26:28;24.10;97.50
11246;DHT22;59870;50.106;8.580;2023-09-18T07:28:55;24.20;97.40
11246;DHT22;59870;50.106;8.580;2023-09-18T07:31:27;24.20;97.40
11246;DHT22;59870;50.106;8.580;2023-09-18T07:33:55;24.20;97.30
11246;DHT22;59870;50.106;8.580;2023-09-18T07:36:22;24.30;97.20
11246;DHT22;59870;50.106;8.580;2023-09-18T07:38:50;24.30;97.20
11246;DHT22;59870;50.106;8.580;2023-09-18T07:41:18;24.30;97.00
11246;DHT22;59870;50.106;8.580;2023-09-18T07:43:46;24.30;97.00
11246;DHT22;59870;50.106;8.580;2023-09-18T07:46:14;24.40;96.90
11246;DHT22;59870;50.106;8.580;2023-09-18T07:48:41;24.40;96.80
11246;DHT22;59870;50.106;8.580;2023-09-18T07:51:12;24.40;97.00
11246;DHT22;59870;50.106;8.580;2023-09-18T07:53:42;24.60;97.10
11246;DHT22;59870;50.106;8.580;2023-09-18T07:56:09;24.40;96.90
11246;DHT22;59870;50.106;8.580;2023-09-18T07:58:37;24.40;96.80
11246;DHT22;59870;50.106;8.580;2023-09-18T08:01:06;24.80;97.10
11246;DHT22;59870;50.106;8.580;2023-09-18T08:03:36;24.50;96.90
11246;DHT22;59870;50.106;8.580;2023-09-18T08:06:03;24.50;96.70
11246;DHT22;59870;50.106;8.580;2023-09-18T08:08:31;24.60;96.90
11246;DHT22;59870;50.106;8.580;2023-09-18T08:11:07;24.60;96.70
11246;DHT22;59870;50.106;8.580;2023-09-18T08:13:37;24.80;96.90
11246;DHT22;59870;50.106;8.580;2023-09-18T08:16:06;24.80;96.40
11246;DHT22;59870;50.106;8.580;2023-09-18T08:18:35;24.90;96.10
11246;DHT22;59870;50.106;8.580;2023-09-18T08:21:03;25.00;96.20
11246;DHT22;59870;50.106;8.580;2023-09-18T08:23:32;25.30;96.10
11246;DHT22;59870;50.106;8.580;2023-09-18T08:25:59;25.10;96.00
11246;DHT22;59870;50.106;8.580;2023-09-18T08:28:28;25.20;95.50
11246;DHT22;59870;50.106;8.580;2023-09-18T08:30:56;25.30;95.60
11246;DHT22;59870;50.106;8.580;2023-09-18T08:33:23;25.30;95.70
11246;DHT22;59870;50.106;8.580;2023-09-18T08:35:52;25.40;95.70
11246;DHT22;59870;50.106;8.580;2023-09-18T08:38:19;25.40;95.70
11246;DHT22;59870;50.106;8.580;2023-09-18T08:40:47;25.60;95.10
11246;DHT22;59870;50.106;8.580;2023-09-18T08:43:16;25.60;95.10
11246;DHT22;59870;50.106;8.580;2023-09-18T08:45:55;25.70;95.10
11246;DHT22;59870;50.106;8.580;2023-09-18T08:48:28;25.80;94.90
11246;DHT22;59870;50.106;8.580;2023-09-18T08:51:03;25.80;94.50
11246;DHT22;59870;50.106;8.580;2023-09-18T08:53:33;25.90;94.70
11246;DHT22;59870;50.106;8.580;2023-09-18T08:56:02;26.00;94.10
11246;DHT22;59870;50.106;8.580;2023-09-18T08:58:33;26.00;93.90
11246;DHT22;59870;50.106;8.580;2023-09-18T09:01:06;26.10;94.00
11246;DHT22;59870;50.106;8.580;2023-09-18T09:03:40;26.10;93.70
11246;DHT22;59870;50.106;8.580;2023-09-18T09:06:09;26.20;93.30
11246;DHT22;59870;50.106;8.580;2023-09-18T09:08:37;26.20;93.10
11246;DHT22;59870;50.106;8.580;2023-09-18T09:11:05;26.60;93.20
11246;DHT22;59870;50.106;8.580;2023-09-18T09:13:38;26.30;93.20
11246;DHT22;59870;50.106;8.580;2023-09-18T09:16:13;26.30;93.00
11246;DHT22;59870;50.106;8.580;2023-09-18T09:18:50;26.40;92.90
11246;DHT22;59870;50.106;8.580;2023-09-18T09:21:19;26.30;92.70
11246;DHT22;59870;50.106;8.580;2023-09-18T09:23:48;26.40;92.80
11246;DHT22;59870;50.106;8.580;2023-09-18T09:26:18;26.40;92.90
11246;DHT22;59870;50.106;8.580;2023-09-18T09:28:46;26.50;92.50
11246;DHT22;59870;50.106;8.580;2023-09-18T09:31:26;26.40;92.50
11246;DHT22;59870;50.106;8.580;2023-09-18T09:33:55;26.40;92.80
11246;DHT22;59870;50.106;8.580;2023-09-18T09:36:24;26.40;92.70
11246;DHT22;59870;50.106;8.580;2023-09-18T09:38:55;26.50;92.50
11246;DHT22;59870;50.106;8.580;2023-09-18T09:41:25;26.70;92.40
11246;DHT22;59870;50.106;8.580;2023-09-18T09:43:58;26.80;92.30
11246;DHT22;59870;50.106;8.580;2023-09-18T09:46:26;26.50;91.90
11246;DHT22;59870;50.106;8.580;2023-09-18T09:49:02;26.50;91.80
11246;DHT22;59870;50.106;8.580;2023-09-18T09:51:31;26.50;91.40
11246;DHT22;59870;50.106;8.580;2023-09-18T09:53:59;26.50;90.60
11246;DHT22;59870;50.106;8.580;2023-09-18T09:56:48;26.50;90.70
11246;DHT22;59870;50.106;8.580;2023-09-18T09:59:19;26.40;90.90
11246;DHT22;59870;50.106;8.580;2023-09-18T10:01:48;26.50;90.80
11246;DHT22;59870;50.106;8.580;2023-09-18T10:04:19;26.40;90.10
11246;DHT22;59870;50.106;8.580;2023-09-18T10:06:52;26.40;90.40
11246;DHT22;59870;50.106;8.580;2023-09-18T10:09:22;26.40;90.50
11246;DHT22;59870;50.106;8.580;2023-09-18T10:11:52;26.40;90.30
11246;DHT22;59870;50.106;8.580;2023-09-18T10:14:28;26.50;90.60
11246;DHT22;59870;50.106;8.580;2023-09-18T10:17:18;26.50;90.40
11246;DHT22;59870;50.106;8.580;2023-09-18T10:20:02;26.60;90.20
11246;DHT22;59870;50.106;8.580;2023-09-18T10:22:56;26.50;89.90
11246;DHT22;59870;50.106;8.580;2023-09-18T10:25:28;26.50;90.00
11246;DHT22;59870;50.106;8.580;2023-09-18T10:27:59;26.50;90.10
11246;DHT22;59870;50.106;8.580;2023-09-18T10:30:31;26.60;88.90
11246;DHT22;59870;50.106;8.580;2023-09-18T10:33:00;26.50;89.40
11246;DHT22;59870;50.106;8.580;2023-09-18T10:35:29;26.80;90.00
11246;DHT22;59870;50.106;8.580;2023-09-18T10:37:57;26.60;90.00
11246;DHT22;59870;50.106;8.580;2023-09-18T10:40:26;26.60;88.60
11246;DHT22;59870;50.106;8.580;2023-09-18T10:42:57;26.60;89.40
11246;DHT22;59870;50.106;8.580;2023-09-18T10:45:25;26.90;89.40
11246;DHT22;59870;50.106;8.580;2023-09-18T10:47:54;27.00;88.70
11246;DHT22;59870;50.106;8.580;2023-09-18T10:50:24;26.80;88.60
11246;DHT22;59870;50.106;8.580;2023-09-18T10:52:52;26.80;88.20
11246;DHT22;59870;50.106;8.580;2023-09-18T10:55:21;26.80;88.60
11246;DHT22;59870;50.106;8.580;2023-09-18T10:57:54;27.00;89.10
11246;DHT22;59870;50.106;8.580;2023-09-18T11:00:24;26.90;88.50
11246;DHT22;59870;50.106;8.580;2023-09-18T11:02:52;27.20;89.40
11246;DHT22;59870;50.106;8.580;2023-09-18T11:05:30;27.00;89.00
11246;DHT22;59870;50.106;8.580;2023-09-18T11:11:07;27.00;88.10
11246;DHT22;59870;50.106;8.580;2023-09-18T11:13:44;27.10;87.80
11246;DHT22;59870;50.106;8.580;2023-09-18T11:16:33;27.20;87.90
11246;DHT22;59870;50.106;8.580;2023-09-18T11:19:05;27.40;88.00
11246;DHT22;59870;50.106;8.580;2023-09-18T11:21:35;27.40;87.40
11246;DHT22;59870;50.106;8.580;2023-09-18T11:26:33;27.30;86.00
11246;DHT22;59870;50.106;8.580;2023-09-18T11:29:05;27.30;86.20
11246;DHT22;59870;50.106;8.580;2023-09-18T11:32:03;27.30;85.70
11246;DHT22;59870;50.106;8.580;2023-09-18T11:34:33;27.40;86.60
11246;DHT22;59870;50.106;8.580;2023-09-18T11:37:18;27.60;86.00
11246;DHT22;59870;50.106;8.580;2023-09-18T11:39:46;27.40;85.80
11246;DHT22;59870;50.106;8.580;2023-09-18T11:42:18;27.40;85.20
11246;DHT22;59870;50.106;8.580;2023-09-18T11:44:47;27.40;85.60
11246;DHT22;59870;50.106;8.580;2023-09-18T11:47:20;27.50;85.10
11246;DHT22;59870;50.106;8.580;2023-09-18T11:49:56;27.40;85.60
11246;DHT22;59870;50.106;8.580;2023-09-18T11:52:29;27.50;85.30
11246;DHT22;59870;50.106;8.580;2023-09-18T11:54:59;27.60;84.90
11246;DHT22;59870;50.106;8.580;2023-09-18T11:57:27;27.80;84.90
11246;DHT22;59870;50.106;8.580;2023-09-18T11:59:57;27.60;85.10
11246;DHT22;59870;50.106;8.580;2023-09-18T12:02:39;27.90;83.90
11246;DHT22;59870;50.106;8.580;2023-09-18T12:05:15;27.90;84.80
11246;DHT22;59870;50.106;8.580;2023-09-18T12:07:44;28.00;84.90
11246;DHT22;59870;50.106;8.580;2023-09-18T12:10:15;27.80;83.90
11246;DHT22;59870;50.106;8.580;2023-09-18T12:12:44;27.90;83.40
11246;DHT22;59870;50.106;8.580;2023-09-18T12:15:18;27.90;83.70
11246;DHT22;59870;50.106;8.580;2023-09-18T12:17:46;28.00;83.90
11246;DHT22;59870;50.106;8.580;2023-09-18T12:20:15;28.00;83.20
11246;DHT22;59870;50.106;8.580;2023-09-18T12:22:50;28.00;83.10
11246;DHT22;59870;50.106;8.580;2023-09-18T12:25:18;28.10;83.40
11246;DHT22;59870;50.106;8.580;2023-09-18T12:27:52;28.10;82.90
11246;DHT22;59870;50.106;8.580;2023-09-18T12:30:20;28.20;83.00
11246;DHT22;59870;50.106;8.580;2023-09-18T12:32:51;28.20;82.90
11246;DHT22;59870;50.106;8.580;2023-09-18T12:35:19;28.60;83.00
11246;DHT22;59870;50.106;8.580;2023-09-18T12:37:46;28.30;83.20
11246;DHT22;59870;50.106;8.580;2023-09-18T12:40:24;28.40;81.50
11246;DHT22;59870;50.106;8.580;2023-09-18T12:42:57;28.40;82.10
11246;DHT22;59870;50.106;8.580;2023-09-18T12:45:28;28.50;82.40
11246;DHT22;59870;50.106;8.580;2023-09-18T12:47:58;28.80;82.20
11246;DHT22;59870;50.106;8.580;2023-09-18T12:50:26;28.70;82.50
11246;DHT22;59870;50.106;8.580;2023-09-18T12:53:06;28.60;80.50
11246;DHT22;59870;50.106;8.580;2023-09-18T12:55:35;29.00;80.60
11246;DHT22;59870;50.106;8.580;2023-09-18T12:58:02;28.80;79.20
11246;DHT22;59870;50.106;8.580;2023-09-18T13:00:35;28.90;78.40
11246;DHT22;59870;50.106;8.580;2023-09-18T13:03:03;29.00;78.70
11246;DHT22;59870;50.106;8.580;2023-09-18T13:05:31;28.90;79.70
11246;DHT22;59870;50.106;8.580;2023-09-18T13:08:03;28.90;79.00
11246;DHT22;59870;50.106;8.580;2023-09-18T13:10:44;29.00;78.80
11246;DHT22;59870;50.106;8.580;2023-09-18T13:13:22;29.00;77.50
11246;DHT22;59870;50.106;8.580;2023-09-18T13:15:50;29.00;78.10
11246;DHT22;59870;50.106;8.580;2023-09-18T13:18:22;29.30;78.70
11246;DHT22;59870;50.106;8.580;2023-09-18T13:20:52;29.00;77.10
11246;DHT22;59870;50.106;8.580;2023-09-18T13:23:20;29.00;78.10
11246;DHT22;59870;50.106;8.580;2023-09-18T13:25:49;29.10;77.60
11246;DHT22;59870;50.106;8.580;2023-09-18T13:28:16;29.10;77.60
11246;DHT22;59870;50.106;8.580;2023-09-18T13:30:48;29.30;78.00
11246;DHT22;59870;50.106;8.580;2023-09-18T13:33:16;29.10;77.20
11246;DHT22;59870;50.106;8.580;2023-09-18T13:35:44;29.10;77.10
11246;DHT22;59870;50.106;8.580;2023-09-18T13:38:12;29.20;77.60
11246;DHT22;59870;50.106;8.580;2023-09-18T13:40:42;29.10;76.90
11246;DHT22;59870;50.106;8.580;2023-09-18T13:43:09;29.20;76.70
11246;DHT22;59870;50.106;8.580;2023-09-18T13:45:37;29.40;76.20
11246;DHT22;59870;50.106;8.580;2023-09-18T13:48:06;29.20;74.70
11246;DHT22;59870;50.106;8.580;2023-09-18T13:50:36;29.10;74.80
11246;DHT22;59870;50.106;8.580;2023-09-18T13:53:05;29.20;75.40
11246;DHT22;59870;50.106;8.580;2023-09-18T13:55:33;29.10;75.60
11246;DHT22;59870;50.106;8.580;2023-09-18T13:58:01;29.10;75.60
11246;DHT22;59870;50.106;8.580;2023-09-18T14:00:32;29.00;75.70
11246;DHT22;59870;50.106;8.580;2023-09-18T14:03:00;29.10;74.70
11246;DHT22;59870;50.106;8.580;2023-09-18T14:05:27;29.10;74.80
11246;DHT22;59870;50.106;8.580;2023-09-18T14:07:56;29.10;74.90
11246;DHT22;59870;50.106;8.580;2023-09-18T14:10:28;29.30;75.20
11246;DHT22;59870;50.106;8.580;2023-09-18T14:12:55;29.00;75.20
11246;DHT22;59870;50.106;8.580;2023-09-18T14:15:24;29.20;75.50
11246;DHT22;59870;50.106;8.580;2023-09-18T14:18:10;29.00;75.80
11246;DHT22;59870;50.106;8.580;2023-09-18T14:20:40;29.10;75.00
11246;DHT22;59870;50.106;8.580;2023-09-18T14:23:09;29.00;74.80
11246;DHT22;59870;50.106;8.580;2023-09-18T14:25:36;29.20;74.90
11246;DHT22;59870;50.106;8.580;2023-09-18T14:28:04;29.00;75.50
11246;DHT22;59870;50.106;8.580;2023-09-18T14:30:33;29.00;74.50
11246;DHT22;59870;50.106;8.580;2023-09-18T14:33:00;29.00;74.40
11246;DHT22;59870;50.106;8.580;2023-09-18T14:35:29;29.00;74.30
11246;DHT22;59870;50.106;8.580;2023-09-18T14:37:56;29.00;75.10
11246;DHT22;59870;50.106;8.580;2023-09-18T14:40:23;29.30;74.00
11246;DHT22;59870;50.106;8.580;2023-09-18T14:42:51;29.00;74.00
11246;DHT22;59870;50.106;8.580;2023-09-18T14:45:19;29.00;73.80
11246;DHT22;59870;50.106;8.580;2023-09-18T14:47:47;29.00;76.00
11246;DHT22;59870;50.106;8.580;2023-09-18T14:50:16;29.00;77.90
11246;DHT22;59870;50.106;8.580;2023-09-18T14:52:43;29.00;77.90
11246;DHT22;59870;50.106;8.580;2023-09-18T14:55:11;29.20;78.70
11246;DHT22;59870;50.106;8.580;2023-09-18T14:57:40;29.00;77.70
11246;DHT22;59870;50.106;8.580;2023-09-18T15:00:08;29.20;78.40
11246;DHT22;59870;50.106;8.580;2023-09-18T15:02:36;28.90;77.70
11246;DHT22;59870;50.106;8.580;2023-09-18T15:05:04;28.90;77.80
11246;DHT22;59870;50.106;8.580;2023-09-18T15:07:36;28.90;77.80
11246;DHT22;59870;50.106;8.580;2023-09-18T15:10:03;28.90;77.70
11246;DHT22;59870;50.106;8.580;2023-09-18T15:12:32;28.80;77.50
11246;DHT22;59870;50.106;8.580;2023-09-18T15:15:00;28.80;77.80
11246;DHT22;59870;50.106;8.580;2023-09-18T15:17:27;28.80;77.10
11246;DHT22;59870;50.106;8.580;2023-09-18T15:19:55;28.70;77.20
11246;DHT22;59870;50.106;8.580;2023-09-18T15:22:24;28.70;77.50
11246;DHT22;59870;50.106;8.580;2023-09-18T15:24:52;28.90;76.60
11246;DHT22;59870;50.106;8.580;2023-09-18T15:27:20;28.70;77.40
11246;DHT22;59870;50.106;8.580;2023-09-18T15:29:47;28.80;77.80
11246;DHT22;59870;50.106;8.580;2023-09-18T15:32:15;28.90;78.60
11246;DHT22;59870;50.106;8.580;2023-09-18T15:34:43;28.50;77.40
11246;DHT22;59870;50.106;8.580;2023-09-18T15:37:11;28.70;77.80
11246;DHT22;59870;50.106;8.580;2023-09-18T15:39:39;28.40;77.10
11246;DHT22;59870;50.106;8.580;2023-09-18T15:42:07;28.40;77.10
11246;DHT22;59870;50.106;8.580;2023-09-18T15:44:34;28.40;76.70
11246;DHT22;59870;50.106;8.580;2023-09-18T15:47:02;28.40;78.00
11246;DHT22;59870;50.106;8.580;2023-09-18T15:49:31;28.30;76.80
11246;DHT22;59870;50.106;8.580;2023-09-18T15:51:59;28.30;78.30
11246;DHT22;59870;50.106;8.580;2023-09-18T15:54:27;28.40;78.60